sensor_id;sensor_type;location;lat;lon;timestamp;temperature;humidity
851;DHT22;412;51.400;7.480;2023-09-19T00:01:15;19.50;99.90
851;DHT22;412;51.400;7.480;2023-09-19T00:03:45;19.50;99.90
851;DHT22;412;51.400;7.480;2023-09-19T00:06:11;19.40;99.90
851;DHT22;412;51.400;7.480;2023-09-19T00:08:38;19.50;99.90
851;DHT22;412;51.400;7.480;2023-09-19T00:11:04;19.40;99.90
851;DHT22;412;51.400;7.480;2023-09-19T00:13:32;19.40;99.90
851;DHT22;412;51.400;7.480;2023-09-19T00:15:59;19.40;99.90
851;DHT22;412;51.400;7.480;2023-09-19T00:18:25;19.40;99.90
851;DHT22;412;51.400;7.480;2023-09-19T00:21:01;19.40;99.90
851;DHT22;412;51.400;7.480;2023-09-19T00:23:27;19.30;99.90
851;DHT22;412;51.400;7.480;2023-09-19T00:25:53;19.30;99.90
851;DHT22;412;51.400;7.480;2023-09-19T00:28:23;19.30;99.90
851;DHT22;412;51.400;7.480;2023-09-19T00:30:48;19.30;99.90
851;DHT22;412;51.400;7.480;2023-09-19T00:33:15;19.30;99.90
851;DHT22;412;51.400;7.480;2023-09-19T00:35:52;19.30;99.90
851;DHT22;412;51.400;7.480;2023-09-19T00:38:19;19.20;99.90
851;DHT22;412;51.400;7.480;2023-09-19T00:40:48;19.30;99.90
851;DHT22;412;51.400;7.480;2023-09-19T00:43:14;19.30;99.90
851;DHT22;412;51.400;7.480;2023-09-19T00:45:43;19.30;99.90
851;DHT22;412;51.400;7.480;2023-09-19T00:48:09;19.20;99.90
851;DHT22;412;51.400;7.480;2023-09-19T00:50:36;19.20;99.90
851;DHT22;412;51.400;7.480;2023-09-19T00:53:02;19.20;99.90
851;DHT22;412;51.400;7.480;2023-09-19T00:55:36;19.20;99.90
851;DHT22;412;51.400;7.480;2023-09-19T00:58:06;19.20;99.90
851;DHT22;412;51.400;7.480;2023-09-19T01:00:33;19.20;99.90
851;DHT22;412;51.400;7.480;2023-09-19T01:03:02;19.20;99.90
851;DHT22;412;51.400;7.480;2023-09-19T01:05:28;19.10;99.90
851;DHT22;412;51.400;7.480;2023-09-19T01:07:57;19.10;99.90
851;DHT22;412;51.400;7.480;2023-09-19T01:10:24;19.10;99.90
851;DHT22;412;51.400;7.480;2023-09-19T01:15:49;19.10;99.90
851;DHT22;412;51.400;7.480;2023-09-19T01:26:51;19.00;99.90
851;DHT22;412;51.400;7.480;2023-09-19T01:29:38;19.00;99.90
851;DHT22;412;51.400;7.480;2023-09-19T01:32:08;18.90;99.90
851;DHT22;412;51.400;7.480;2023-09-19T01:37:11;19.00;99.90
851;DHT22;412;51.400;7.480;2023-09-19T01:39:37;19.00;99.90
851;DHT22;412;51.400;7.480;2023-09-19T01:42:12;19.00;99.90
851;DHT22;412;51.400;7.480;2023-09-19T01:47:49;18.90;99.90
851;DHT22;412;51.400;7.480;2023-09-19T01:50:30;18.90;99.90
851;DHT22;412;51.400;7.480;2023-09-19T01:53:04;18.80;99.90
851;DHT22;412;51.400;7.480;2023-09-19T01:55:36;18.80;99.90
851;DHT22;412;51.400;7.480;2023-09-19T01:58:12;18.70;99.90
851;DHT22;412;51.400;7.480;2023-09-19T02:00:44;18.80;99.90
851;DHT22;412;51.400;7.480;2023-09-19T02:03:11;18.80;99.90
851;DHT22;412;51.400;7.480;2023-09-19T02:05:38;18.80;99.90
851;DHT22;412;51.400;7.480;2023-09-19T02:08:05;18.80;99.90
851;DHT22;412;51.400;7.480;2023-09-19T02:10:31;18.80;99.90
851;DHT22;412;51.400;7.480;2023-09-19T02:12:56;18.80;99.90
851;DHT22;412;51.400;7.480;2023-09-19T02:15:22;18.80;99.90
851;DHT22;412;51.400;7.480;2023-09-19T02:17:48;18.80;99.90
851;DHT22;412;51.400;7.480;2023-09-19T02:20:14;18.80;99.90
851;DHT22;412;51.400;7.480;2023-09-19T02:22:45;18.80;99.90
851;DHT22;412;51.400;7.480;2023-09-19T02:25:11;18.80;99.90
851;DHT22;412;51.400;7.480;2023-09-19T02:27:37;18.90;99.90
851;DHT22;412;51.400;7.480;2023-09-19T02:30:04;18.90;99.90
851;DHT22;412;51.400;7.480;2023-09-19T02:32:30;18.90;99.90
851;DHT22;412;51.400;7.480;2023-09-19T02:35:02;18.80;99.90
851;DHT22;412;51.400;7.480;2023-09-19T02:37:31;18.80;99.90
851;DHT22;412;51.400;7.480;2023-09-19T02:39:58;18.80;99.90
851;DHT22;412;51.400;7.480;2023-09-19T02:42:24;18.80;99.90
851;DHT22;412;51.400;7.480;2023-09-19T02:44:49;18.80;99.90
851;DHT22;412;51.400;7.480;2023-09-19T02:47:15;18.80;99.90
851;DHT22;412;51.400;7.480;2023-09-19T02:49:42;18.90;99.90
851;DHT22;412;51.400;7.480;2023-09-19T02:52:08;18.80;99.90
851;DHT22;412;51.400;7.480;2023-09-19T02:54:34;18.80;99.90
851;DHT22;412;51.400;7.480;2023-09-19T02:56:59;18.90;99.90
851;DHT22;412;51.400;7.480;2023-09-19T02:59:25;18.80;99.90
851;DHT22;412;51.400;7.480;2023-09-19T03:01:51;18.80;99.90
851;DHT22;412;51.400;7.480;2023-09-19T03:04:17;18.80;99.90
851;DHT22;412;51.400;7.480;2023-09-19T03:06:45;18.80;99.90
851;DHT22;412;51.400;7.480;2023-09-19T03:09:11;18.70;99.90
851;DHT22;412;51.400;7.480;2023-09-19T03:11:38;18.70;99.90
851;DHT22;412;51.400;7.480;2023-09-19T03:14:05;18.60;99.90
851;DHT22;412;51.400;7.480;2023-09-19T03:16:31;18.60;99.90
851;DHT22;412;51.400;7.480;2023-09-19T03:19:02;18.60;99.90
851;DHT22;412;51.400;7.480;2023-09-19T03:21:28;18.60;99.90
851;DHT22;412;51.400;7.480;2023-09-19T03:23:56;18.50;99.90
851;DHT22;412;51.400;7.480;2023-09-19T03:26:22;18.60;99.90
851;DHT22;412;51.400;7.480;2023-09-19T03:28:48;18.60;99.90
851;DHT22;412;51.400;7.480;2023-09-19T03:31:13;18.60;99.90
851;DHT22;412;51.400;7.480;2023-09-19T03:33:39;18.60;99.90
851;DHT22;412;51.400;7.480;2023-09-19T03:36:05;18.60;99.90
851;DHT22;412;51.400;7.480;2023-09-19T03:38:31;18.60;99.90
851;DHT22;412;51.400;7.480;2023-09-19T03:40:58;18.60;99.90
851;DHT22;412;51.400;7.480;2023-09-19T03:43:24;18.60;99.90
851;DHT22;412;51.400;7.480;2023-09-19T03:45:50;18.60;99.90
851;DHT22;412;51.400;7.480;2023-09-19T03:48:16;18.60;99.90
851;DHT22;412;51.400;7.480;2023-09-19T03:50:42;18.60;99.90
851;DHT22;412;51.400;7.480;2023-09-19T03:53:09;18.60;99.90
851;DHT22;412;51.400;7.480;2023-09-19T03:55:35;18.60;99.90
851;DHT22;412;51.400;7.480;2023-09-19T03:58:01;18.40;99.90
851;DHT22;412;51.400;7.480;2023-09-19T04:00:27;18.40;99.90
851;DHT22;412;51.400;7.480;2023-09-19T04:02:55;18.40;99.90
851;DHT22;412;51.400;7.480;2023-09-19T04:05:22;18.40;99.90
851;DHT22;412;51.400;7.480;2023-09-19T04:07:49;18.40;99.90
851;DHT22;412;51.400;7.480;2023-09-19T04:10:15;18.30;99.90
851;DHT22;412;51.400;7.480;2023-09-19T04:12:51;18.30;99.90
851;DHT22;412;51.400;7.480;2023-09-19T04:15:17;18.20;99.90
851;DHT22;412;51.400;7.480;2023-09-19T04:17:43;18.20;99.90
851;DHT22;412;51.400;7.480;2023-09-19T04:20:09;18.20;99.90
851;DHT22;412;51.400;7.480;2023-09-19T04:22:38;18.20;99.90
851;DHT22;412;51.400;7.480;2023-09-19T04:25:05;18.20;99.90
851;DHT22;412;51.400;7.480;2023-09-19T04:27:34;18.20;99.90
851;DHT22;412;51.400;7.480;2023-09-19T04:30:00;18.20;99.90
851;DHT22;412;51.400;7.480;2023-09-19T04:32:35;18.30;99.90
851;DHT22;412;51.400;7.480;2023-09-19T04:35:02;18.30;99.90
851;DHT22;412;51.400;7.480;2023-09-19T04:37:31;18.30;99.90
851;DHT22;412;51.400;7.480;2023-09-19T04:39:57;18.30;99.90
851;DHT22;412;51.400;7.480;2023-09-19T04:42:22;18.20;99.90
851;DHT22;412;51.400;7.480;2023-09-19T04:44:50;18.20;99.90
851;DHT22;412;51.400;7.480;2023-09-19T04:47:19;18.20;99.90
851;DHT22;412;51.400;7.480;2023-09-19T04:49:45;18.30;99.90
851;DHT22;412;51.400;7.480;2023-09-19T04:52:10;18.30;99.90
851;DHT22;412;51.400;7.480;2023-09-19T04:54:36;18.40;99.90
851;DHT22;412;51.400;7.480;2023-09-19T04:57:03;18.20;99.90
851;DHT22;412;51.400;7.480;2023-09-19T04:59:31;18.30;99.90
851;DHT22;412;51.400;7.480;2023-09-19T05:01:57;18.30;99.90
851;DHT22;412;51.400;7.480;2023-09-19T05:04:22;18.30;99.90
851;DHT22;412;51.400;7.480;2023-09-19T05:06:48;18.40;99.90
851;DHT22;412;51.400;7.480;2023-09-19T05:09:14;18.40;99.90
851;DHT22;412;51.400;7.480;2023-09-19T05:11:40;18.40;99.90
851;DHT22;412;51.400;7.480;2023-09-19T05:14:06;18.40;99.90
851;DHT22;412;51.400;7.480;2023-09-19T05:16:32;18.40;99.90
851;DHT22;412;51.400;7.480;2023-09-19T05:18:58;18.40;99.90
851;DHT22;412;51.400;7.480;2023-09-19T05:21:26;18.40;99.90
851;DHT22;412;51.400;7.480;2023-09-19T05:23:54;18.40;99.90
851;DHT22;412;51.400;7.480;2023-09-19T05:26:21;18.40;99.90
851;DHT22;412;51.400;7.480;2023-09-19T05:28:47;18.40;99.90
851;DHT22;412;51.400;7.480;2023-09-19T05:31:15;18.30;99.90
851;DHT22;412;51.400;7.480;2023-09-19T05:33:42;18.30;99.90
851;DHT22;412;51.400;7.480;2023-09-19T05:36:08;18.40;99.90
851;DHT22;412;51.400;7.480;2023-09-19T05:38:36;18.30;99.90
851;DHT22;412;51.400;7.480;2023-09-19T05:41:02;18.40;99.90
851;DHT22;412;51.400;7.480;2023-09-19T05:43:28;18.30;99.90
851;DHT22;412;51.400;7.480;2023-09-19T05:45:53;18.40;99.90
851;DHT22;412;51.400;7.480;2023-09-19T05:48:22;18.40;99.90
851;DHT22;412;51.400;7.480;2023-09-19T05:50:47;18.20;99.90
851;DHT22;412;51.400;7.480;2023-09-19T05:53:14;18.20;99.90
851;DHT22;412;51.400;7.480;2023-09-19T05:55:41;18.30;99.90
851;DHT22;412;51.400;7.480;2023-09-19T05:58:07;18.30;99.90
851;DHT22;412;51.400;7.480;2023-09-19T06:00:34;18.30;99.90
851;DHT22;412;51.400;7.480;2023-09-19T06:03:00;18.40;99.90
851;DHT22;412;51.400;7.480;2023-09-19T06:05:27;18.30;99.90
851;DHT22;412;51.400;7.480;2023-09-19T06:07:53;18.40;99.90
851;DHT22;412;51.400;7.480;2023-09-19T06:10:20;18.40;99.90
851;DHT22;412;51.400;7.480;2023-09-19T06:12:48;18.40;99.90
851;DHT22;412;51.400;7.480;2023-09-19T06:15:15;18.50;99.90
851;DHT22;412;51.400;7.480;2023-09-19T06:17:48;18.90;99.90
851;DHT22;412;51.400;7.480;2023-09-19T06:20:14;19.10;99.90
851;DHT22;412;51.400;7.480;2023-09-19T06:22:45;19.20;99.90
851;DHT22;412;51.400;7.480;2023-09-19T06:25:13;19.30;99.90
851;DHT22;412;51.400;7.480;2023-09-19T06:27:48;19.50;99.90
851;DHT22;412;51.400;7.480;2023-09-19T06:30:18;19.30;99.90
851;DHT22;412;51.400;7.480;2023-09-19T06:32:44;19.10;99.90
851;DHT22;412;51.400;7.480;2023-09-19T06:35:11;18.90;99.90
851;DHT22;412;51.400;7.480;2023-09-19T06:37:40;18.80;99.90
851;DHT22;412;51.400;7.480;2023-09-19T06:40:13;18.70;99.90
851;DHT22;412;51.400;7.480;2023-09-19T06:42:46;19.00;99.90
851;DHT22;412;51.400;7.480;2023-09-19T06:45:13;19.20;99.90
851;DHT22;412;51.400;7.480;2023-09-19T06:47:47;19.40;99.90
851;DHT22;412;51.400;7.480;2023-09-19T06:50:20;19.20;99.90
851;DHT22;412;51.400;7.480;2023-09-19T06:52:52;18.90;99.90
851;DHT22;412;51.400;7.480;2023-09-19T06:55:20;18.70;99.90
851;DHT22;412;51.400;7.480;2023-09-19T06:57:46;18.60;99.90
851;DHT22;412;51.400;7.480;2023-09-19T07:00:14;18.60;99.90
851;DHT22;412;51.400;7.480;2023-09-19T07:05:23;18.40;99.90
851;DHT22;412;51.400;7.480;2023-09-19T07:07:48;18.30;99.90
851;DHT22;412;51.400;7.480;2023-09-19T07:10:14;18.20;99.90
851;DHT22;412;51.400;7.480;2023-09-19T07:12:41;18.20;99.90
851;DHT22;412;51.400;7.480;2023-09-19T07:15:07;18.20;99.90
851;DHT22;412;51.400;7.480;2023-09-19T07:17:33;18.20;99.90
851;DHT22;412;51.400;7.480;2023-09-19T07:19:59;18.20;99.90
851;DHT22;412;51.400;7.480;2023-09-19T07:22:28;18.20;99.90
851;DHT22;412;51.400;7.480;2023-09-19T07:24:53;18.40;99.90
851;DHT22;412;51.400;7.480;2023-09-19T07:27:20;18.50;99.90
851;DHT22;412;51.400;7.480;2023-09-19T07:29:45;18.70;99.90
851;DHT22;412;51.400;7.480;2023-09-19T07:32:11;18.90;99.90
851;DHT22;412;51.400;7.480;2023-09-19T07:34:38;19.10;99.90
851;DHT22;412;51.400;7.480;2023-09-19T07:37:06;19.30;99.90
851;DHT22;412;51.400;7.480;2023-09-19T07:39:32;19.40;99.90
851;DHT22;412;51.400;7.480;2023-09-19T07:41:58;19.50;99.90
851;DHT22;412;51.400;7.480;2023-09-19T07:44:24;19.50;99.90
851;DHT22;412;51.400;7.480;2023-09-19T07:46:51;19.60;99.90
851;DHT22;412;51.400;7.480;2023-09-19T07:49:17;19.60;99.90
851;DHT22;412;51.400;7.480;2023-09-19T07:51:44;19.60;99.90
851;DHT22;412;51.400;7.480;2023-09-19T07:54:13;19.60;99.90
851;DHT22;412;51.400;7.480;2023-09-19T07:56:40;19.40;99.90
851;DHT22;412;51.400;7.480;2023-09-19T07:59:06;19.00;99.90
851;DHT22;412;51.400;7.480;2023-09-19T08:01:33;18.80;99.90
851;DHT22;412;51.400;7.480;2023-09-19T08:04:01;18.50;99.90
851;DHT22;412;51.400;7.480;2023-09-19T08:06:26;18.60;99.90
851;DHT22;412;51.400;7.480;2023-09-19T08:08:55;18.50;99.90
851;DHT22;412;51.400;7.480;2023-09-19T08:11:22;18.60;99.90
851;DHT22;412;51.400;7.480;2023-09-19T08:13:50;18.70;99.90
851;DHT22;412;51.400;7.480;2023-09-19T08:16:16;18.90;99.90
851;DHT22;412;51.400;7.480;2023-09-19T08:18:47;19.10;99.90
851;DHT22;412;51.400;7.480;2023-09-19T08:21:13;19.20;99.90
851;DHT22;412;51.400;7.480;2023-09-19T08:23:40;19.30;99.90
851;DHT22;412;51.400;7.480;2023-09-19T08:26:06;19.50;99.90
851;DHT22;412;51.400;7.480;2023-09-19T08:28:34;19.60;99.90
851;DHT22;412;51.400;7.480;2023-09-19T08:31:04;19.60;99.90
851;DHT22;412;51.400;7.480;2023-09-19T08:33:33;19.70;99.90
851;DHT22;412;51.400;7.480;2023-09-19T08:36:00;19.80;99.90
851;DHT22;412;51.400;7.480;2023-09-19T08:38:25;20.00;99.90
851;DHT22;412;51.400;7.480;2023-09-19T08:40:59;20.10;99.90
851;DHT22;412;51.400;7.480;2023-09-19T08:43:25;20.10;99.90
851;DHT22;412;51.400;7.480;2023-09-19T08:46:10;20.20;99.90
851;DHT22;412;51.400;7.480;2023-09-19T08:48:41;20.20;99.90
851;DHT22;412;51.400;7.480;2023-09-19T08:51:18;20.30;99.90
851;DHT22;412;51.400;7.480;2023-09-19T08:56:17;20.40;99.90
851;DHT22;412;51.400;7.480;2023-09-19T08:58:59;20.40;99.90
851;DHT22;412;51.400;7.480;2023-09-19T09:01:27;20.50;99.90
851;DHT22;412;51.400;7.480;2023-09-19T09:03:55;20.60;99.90
851;DHT22;412;51.400;7.480;2023-09-19T09:06:22;20.70;99.90
851;DHT22;412;51.400;7.480;2023-09-19T09:08:51;20.70;99.90
851;DHT22;412;51.400;7.480;2023-09-19T09:11:17;20.70;99.90
851;DHT22;412;51.400;7.480;2023-09-19T09:13:47;20.70;99.90
851;DHT22;412;51.400;7.480;2023-09-19T09:16:13;20.70;99.90
851;DHT22;412;51.400;7.480;2023-09-19T09:18:44;20.70;99.90
851;DHT22;412;51.400;7.480;2023-09-19T09:21:11;20.80;99.90
851;DHT22;412;51.400;7.480;2023-09-19T09:23:37;20.80;99.90
851;DHT22;412;51.400;7.480;2023-09-19T09:26:04;20.90;99.90
851;DHT22;412;51.400;7.480;2023-09-19T09:28:33;20.90;99.90
851;DHT22;412;51.400;7.480;2023-09-19T09:31:00;20.80;99.90
851;DHT22;412;51.400;7.480;2023-09-19T09:33:28;20.90;99.90
851;DHT22;412;51.400;7.480;2023-09-19T09:35:56;20.90;99.50
851;DHT22;412;51.400;7.480;2023-09-19T09:38:25;20.90;99.60
851;DHT22;412;51.400;7.480;2023-09-19T09:40:58;21.00;99.10
851;DHT22;412;51.400;7.480;2023-09-19T09:43:29;21.10;99.00
851;DHT22;412;51.400;7.480;2023-09-19T09:46:18;21.10;99.00
851;DHT22;412;51.400;7.480;2023-09-19T09:49:03;21.00;99.90
851;DHT22;412;51.400;7.480;2023-09-19T09:54:34;20.60;99.90
851;DHT22;412;51.400;7.480;2023-09-19T09:57:08;20.40;99.90
851;DHT22;412;51.400;7.480;2023-09-19T09:59:58;20.40;99.60
851;DHT22;412;51.400;7.480;2023-09-19T10:02:41;20.40;99.90
851;DHT22;412;51.400;7.480;2023-09-19T10:05:15;20.50;99.90
851;DHT22;412;51.400;7.480;2023-09-19T10:07:41;20.80;99.90
851;DHT22;412;51.400;7.480;2023-09-19T10:10:13;21.00;99.10
851;DHT22;412;51.400;7.480;2023-09-19T10:12:46;21.00;97.30
851;DHT22;412;51.400;7.480;2023-09-19T10:15:15;21.00;98.10
851;DHT22;412;51.400;7.480;2023-09-19T10:17:44;21.00;98.60
851;DHT22;412;51.400;7.480;2023-09-19T10:20:16;21.20;98.40
851;DHT22;412;51.400;7.480;2023-09-19T10:22:50;21.20;98.40
851;DHT22;412;51.400;7.480;2023-09-19T10:25:28;21.30;97.70
851;DHT22;412;51.400;7.480;2023-09-19T10:27:55;21.40;97.30
851;DHT22;412;51.400;7.480;2023-09-19T10:30:24;21.30;96.60
851;DHT22;412;51.400;7.480;2023-09-19T10:33:02;21.20;97.40
851;DHT22;412;51.400;7.480;2023-09-19T10:35:29;21.10;98.20
851;DHT22;412;51.400;7.480;2023-09-19T10:38:00;21.40;98.50
851;DHT22;412;51.400;7.480;2023-09-19T10:40:27;21.70;98.30
851;DHT22;412;51.400;7.480;2023-09-19T10:43:05;22.00;96.70
851;DHT22;412;51.400;7.480;2023-09-19T10:45:35;22.00;95.70
851;DHT22;412;51.400;7.480;2023-09-19T10:48:04;22.00;96.10
851;DHT22;412;51.400;7.480;2023-09-19T10:50:43;22.00;95.80
851;DHT22;412;51.400;7.480;2023-09-19T10:53:11;22.00;95.10
851;DHT22;412;51.400;7.480;2023-09-19T10:55:38;21.90;94.40
851;DHT22;412;51.400;7.480;2023-09-19T10:58:08;21.70;94.50
851;DHT22;412;51.400;7.480;2023-09-19T11:00:56;21.60;94.10
851;DHT22;412;51.400;7.480;2023-09-19T11:03:23;21.40;94.20
851;DHT22;412;51.400;7.480;2023-09-19T11:06:06;21.40;94.10
851;DHT22;412;51.400;7.480;2023-09-19T11:08:54;21.40;95.10
851;DHT22;412;51.400;7.480;2023-09-19T11:30:32;21.80;92.40
851;DHT22;412;51.400;7.480;2023-09-19T11:33:26;21.70;92.70
851;DHT22;412;51.400;7.480;2023-09-19T11:36:14;21.80;92.60
851;DHT22;412;51.400;7.480;2023-09-19T11:43:50;22.10;90.90
851;DHT22;412;51.400;7.480;2023-09-19T11:46:17;22.30;91.90
851;DHT22;412;51.400;7.480;2023-09-19T11:48:53;22.40;91.20
851;DHT22;412;51.400;7.480;2023-09-19T11:51:23;22.40;91.20
851;DHT22;412;51.400;7.480;2023-09-19T11:53:59;22.40;91.80
851;DHT22;412;51.400;7.480;2023-09-19T11:56:29;22.40;92.10
851;DHT22;412;51.400;7.480;2023-09-19T11:58:57;22.60;92.30
851;DHT22;412;51.400;7.480;2023-09-19T12:01:30;22.60;91.70
851;DHT22;412;51.400;7.480;2023-09-19T12:03:58;22.60;91.50
851;DHT22;412;51.400;7.480;2023-09-19T12:06:29;22.70;91.10
851;DHT22;412;51.400;7.480;2023-09-19T12:08:55;22.70;91.00
851;DHT22;412;51.400;7.480;2023-09-19T12:11:23;22.60;91.20
851;DHT22;412;51.400;7.480;2023-09-19T12:13:51;22.30;90.50
851;DHT22;412;51.400;7.480;2023-09-19T12:16:19;22.40;91.90
851;DHT22;412;51.400;7.480;2023-09-19T12:18:50;22.30;89.30
851;DHT22;412;51.400;7.480;2023-09-19T12:24:07;21.80;89.60
851;DHT22;412;51.400;7.480;2023-09-19T12:26:42;21.70;91.20
851;DHT22;412;51.400;7.480;2023-09-19T12:29:16;21.60;91.20
851;DHT22;412;51.400;7.480;2023-09-19T12:34:28;21.70;91.60
851;DHT22;412;51.400;7.480;2023-09-19T12:37:15;21.60;90.80
851;DHT22;412;51.400;7.480;2023-09-19T12:39:47;21.60;92.00
851;DHT22;412;51.400;7.480;2023-09-19T12:42:19;21.60;91.50
851;DHT22;412;51.400;7.480;2023-09-19T12:44:46;21.50;90.50
851;DHT22;412;51.400;7.480;2023-09-19T12:47:16;21.40;90.40
851;DHT22;412;51.400;7.480;2023-09-19T12:50:06;21.40;90.30
851;DHT22;412;51.400;7.480;2023-09-19T12:52:37;21.30;90.10
851;DHT22;412;51.400;7.480;2023-09-19T12:55:03;21.30;90.40
851;DHT22;412;51.400;7.480;2023-09-19T12:57:30;21.40;91.20
851;DHT22;412;51.400;7.480;2023-09-19T13:00:03;21.40;91.50
851;DHT22;412;51.400;7.480;2023-09-19T13:02:36;21.50;91.30
851;DHT22;412;51.400;7.480;2023-09-19T13:05:03;21.50;90.80
851;DHT22;412;51.400;7.480;2023-09-19T13:10:12;21.50;90.90
851;DHT22;412;51.400;7.480;2023-09-19T13:12:41;21.60;91.10
851;DHT22;412;51.400;7.480;2023-09-19T13:15:14;21.60;90.10
851;DHT22;412;51.400;7.480;2023-09-19T13:17:47;21.60;90.10
851;DHT22;412;51.400;7.480;2023-09-19T13:20:25;21.70;90.70
851;DHT22;412;51.400;7.480;2023-09-19T13:22:55;21.80;91.50
851;DHT22;412;51.400;7.480;2023-09-19T13:25:25;22.00;91.20
851;DHT22;412;51.400;7.480;2023-09-19T13:27:55;22.10;91.50
851;DHT22;412;51.400;7.480;2023-09-19T13:30:26;22.00;91.00
851;DHT22;412;51.400;7.480;2023-09-19T13:33:03;22.20;90.30
851;DHT22;412;51.400;7.480;2023-09-19T13:35:29;22.20;85.80
851;DHT22;412;51.400;7.480;2023-09-19T13:37:55;22.20;84.00
851;DHT22;412;51.400;7.480;2023-09-19T13:40:21;22.20;82.50
851;DHT22;412;51.400;7.480;2023-09-19T13:42:46;22.30;82.10
851;DHT22;412;51.400;7.480;2023-09-19T13:45:12;22.40;83.10
851;DHT22;412;51.400;7.480;2023-09-19T13:47:41;22.50;84.00
851;DHT22;412;51.400;7.480;2023-09-19T13:50:07;22.50;85.10
851;DHT22;412;51.400;7.480;2023-09-19T13:52:33;22.60;85.60
851;DHT22;412;51.400;7.480;2023-09-19T13:54:59;22.70;85.00
851;DHT22;412;51.400;7.480;2023-09-19T13:57:26;22.80;86.00
851;DHT22;412;51.400;7.480;2023-09-19T13:59:53;23.00;84.80
851;DHT22;412;51.400;7.480;2023-09-19T14:02:22;23.10;83.60
851;DHT22;412;51.400;7.480;2023-09-19T14:04:49;23.10;84.50
851;DHT22;412;51.400;7.480;2023-09-19T14:07:15;23.10;84.40
851;DHT22;412;51.400;7.480;2023-09-19T14:09:41;23.10;82.70
851;DHT22;412;51.400;7.480;2023-09-19T14:12:07;23.10;84.20
851;DHT22;412;51.400;7.480;2023-09-19T14:14:33;23.10;82.50
851;DHT22;412;51.400;7.480;2023-09-19T14:16:58;23.00;83.30
851;DHT22;412;51.400;7.480;2023-09-19T14:19:29;22.90;83.40
851;DHT22;412;51.400;7.480;2023-09-19T14:21:55;22.80;84.20
851;DHT22;412;51.400;7.480;2023-09-19T14:24:21;22.60;83.20
851;DHT22;412;51.400;7.480;2023-09-19T14:26:48;22.60;84.60
851;DHT22;412;51.400;7.480;2023-09-19T14:29:15;22.60;84.00
851;DHT22;412;51.400;7.480;2023-09-19T14:31:41;22.40;83.70
851;DHT22;412;51.400;7.480;2023-09-19T14:34:07;22.30;84.60
851;DHT22;412;51.400;7.480;2023-09-19T14:36:36;22.30;86.00
851;DHT22;412;51.400;7.480;2023-09-19T14:39:02;22.20;86.30
851;DHT22;412;51.400;7.480;2023-09-19T14:41:28;22.00;87.10
851;DHT22;412;51.400;7.480;2023-09-19T14:43:54;21.90;87.20
851;DHT22;412;51.400;7.480;2023-09-19T14:46:23;21.90;86.90
851;DHT22;412;51.400;7.480;2023-09-19T14:48:52;22.00;87.60
851;DHT22;412;51.400;7.480;2023-09-19T14:51:18;21.90;87.00
851;DHT22;412;51.400;7.480;2023-09-19T14:53:47;21.90;87.70
851;DHT22;412;51.400;7.480;2023-09-19T14:56:13;21.90;88.20
851;DHT22;412;51.400;7.480;2023-09-19T14:58:44;21.90;89.00
851;DHT22;412;51.400;7.480;2023-09-19T15:01:11;21.90;88.20
851;DHT22;412;51.400;7.480;2023-09-19T15:03:38;21.90;88.10
851;DHT22;412;51.400;7.480;2023-09-19T15:06:12;21.80;88.80
851;DHT22;412;51.400;7.480;2023-09-19T15:08:45;21.80;88.60
851;DHT22;412;51.400;7.480;2023-09-19T15:11:17;21.70;89.30
851;DHT22;412;51.400;7.480;2023-09-19T15:13:44;21.70;89.90
851;DHT22;412;51.400;7.480;2023-09-19T15:16:10;21.70;90.20
851;DHT22;412;51.400;7.480;2023-09-19T15:18:40;21.80;90.30
851;DHT22;412;51.400;7.480;2023-09-19T15:21:11;21.80;90.70
851;DHT22;412;51.400;7.480;2023-09-19T15:23:38;21.90;90.70
851;DHT22;412;51.400;7.480;2023-09-19T15:26:05;21.90;91.00
851;DHT22;412;51.400;7.480;2023-09-19T15:28:31;21.80;90.70
851;DHT22;412;51.400;7.480;2023-09-19T15:31:00;21.80;90.80
851;DHT22;412;51.400;7.480;2023-09-19T15:33:26;21.70;90.70
851;DHT22;412;51.400;7.480;2023-09-19T15:36:03;21.70;90.80
851;DHT22;412;51.400;7.480;2023-09-19T15:38:30;21.60;90.90
851;DHT22;412;51.400;7.480;2023-09-19T15:40:58;21.60;91.50
851;DHT22;412;51.400;7.480;2023-09-19T15:43:23;21.60;91.70
851;DHT22;412;51.400;7.480;2023-09-19T15:45:49;21.70;91.70
851;DHT22;412;51.400;7.480;2023-09-19T15:48:15;21.60;91.70
851;DHT22;412;51.400;7.480;2023-09-19T15:50:42;21.50;91.80
851;DHT22;412;51.400;7.480;2023-09-19T15:53:10;21.40;91.10
851;DHT22;412;51.400;7.480;2023-09-19T15:55:38;21.40;90.70
851;DHT22;412;51.400;7.480;2023-09-19T15:58:05;21.30;91.00
851;DHT22;412;51.400;7.480;2023-09-19T16:00:32;21.20;91.30
851;DHT22;412;51.400;7.480;2023-09-19T16:03:02;21.10;91.00
851;DHT22;412;51.400;7.480;2023-09-19T16:05:28;21.10;91.20
851;DHT22;412;51.400;7.480;2023-09-19T16:08:03;21.10;91.60
851;DHT22;412;51.400;7.480;2023-09-19T16:10:29;21.10;91.40
851;DHT22;412;51.400;7.480;2023-09-19T16:12:55;21.10;91.40
851;DHT22;412;51.400;7.480;2023-09-19T16:15:21;21.00;91.50
851;DHT22;412;51.400;7.480;2023-09-19T16:17:46;20.90;91.50
851;DHT22;412;51.400;7.480;2023-09-19T16:20:12;20.90;91.50
851;DHT22;412;51.400;7.480;2023-09-19T16:22:39;20.90;92.00
851;DHT22;412;51.400;7.480;2023-09-19T16:25:06;20.90;91.70
851;DHT22;412;51.400;7.480;2023-09-19T16:27:32;21.00;91.70
851;DHT22;412;51.400;7.480;2023-09-19T16:29:57;21.00;92.10
851;DHT22;412;51.400;7.480;2023-09-19T16:32:23;21.00;91.70
851;DHT22;412;51.400;7.480;2023-09-19T16:34:51;20.90;92.20
851;DHT22;412;51.400;7.480;2023-09-19T16:37:17;20.90;92.00
851;DHT22;412;51.400;7.480;2023-09-19T16:39:44;20.90;92.30
851;DHT22;412;51.400;7.480;2023-09-19T16:42:10;20.80;92.30
851;DHT22;412;51.400;7.480;2023-09-19T16:44:37;20.80;92.20
851;DHT22;412;51.400;7.480;2023-09-19T16:47:03;20.70;92.30
851;DHT22;412;51.400;7.480;2023-09-19T16:49:30;20.70;92.40
851;DHT22;412;51.400;7.480;2023-09-19T16:51:56;20.60;92.50
851;DHT22;412;51.400;7.480;2023-09-19T16:54:22;20.70;92.40
851;DHT22;412;51.400;7.480;2023-09-19T16:56:49;20.60;93.00
851;DHT22;412;51.400;7.480;2023-09-19T16:59:14;20.60;92.80
851;DHT22;412;51.400;7.480;2023-09-19T17:01:41;20.60;92.90
851;DHT22;412;51.400;7.480;2023-09-19T17:04:07;20.60;92.80
851;DHT22;412;51.400;7.480;2023-09-19T17:06:33;20.60;92.80
851;DHT22;412;51.400;7.480;2023-09-19T17:08:59;20.60;92.90
851;DHT22;412;51.400;7.480;2023-09-19T17:11:25;20.60;92.80
851;DHT22;412;51.400;7.480;2023-09-19T17:13:51;20.60;93.40
851;DHT22;412;51.400;7.480;2023-09-19T17:16:19;20.60;93.20
851;DHT22;412;51.400;7.480;2023-09-19T17:18:53;20.60;93.10
851;DHT22;412;51.400;7.480;2023-09-19T17:21:20;20.60;93.10
851;DHT22;412;51.400;7.480;2023-09-19T17:23:45;20.60;93.30
851;DHT22;412;51.400;7.480;2023-09-19T17:26:13;20.60;93.60
851;DHT22;412;51.400;7.480;2023-09-19T17:28:40;20.60;93.70
851;DHT22;412;51.400;7.480;2023-09-19T17:31:18;20.60;93.60
851;DHT22;412;51.400;7.480;2023-09-19T17:33:45;20.50;93.30
851;DHT22;412;51.400;7.480;2023-09-19T17:36:13;20.50;93.70
851;DHT22;412;51.400;7.480;2023-09-19T17:38:47;20.50;93.40
851;DHT22;412;51.400;7.480;2023-09-19T17:41:17;20.40;93.50